sensor_id;sensor_type;location;lat;lon;timestamp;P1;durP1;ratioP1;P2;durP2;ratioP2
7941;SDS011;4016;50.758;7.150;2023-01-28T00:02:08;3.53;;;3.23;;
7941;SDS011;4016;50.758;7.150;2023-01-28T00:07:12;2.90;;;2.70;;
7941;SDS011;4016;50.758;7.150;2023-01-28T00:12:12;3.53;;;3.23;;
7941;SDS011;4016;50.758;7.150;2023-01-28T00:17:13;4.67;;;3.87;;
7941;SDS011;4016;50.758;7.150;2023-01-28T00:22:14;3.57;;;2.83;;
7941;SDS011;4016;50.758;7.150;2023-01-28T00:27:14;3.30;;;3.00;;
7941;SDS011;4016;50.758;7.150;2023-01-28T00:32:15;3.03;;;2.77;;
7941;SDS011;4016;50.758;7.150;2023-01-28T00:37:15;3.03;;;2.80;;
7941;SDS011;4016;50.758;7.150;2023-01-28T00:42:16;3.63;;;3.23;;
7941;SDS011;4016;50.758;7.150;2023-01-28T00:47:16;4.33;;;2.93;;
7941;SDS011;4016;50.758;7.150;2023-01-28T00:52:16;3.50;;;3.20;;
7941;SDS011;4016;50.758;7.150;2023-01-28T00:57:17;3.83;;;3.37;;
7941;SDS011;4016;50.758;7.150;2023-01-28T01:02:17;3.40;;;3.10;;
7941;SDS011;4016;50.758;7.150;2023-01-28T01:07:18;3.43;;;3.10;;
7941;SDS011;4016;50.758;7.150;2023-01-28T01:12:18;3.50;;;3.20;;
7941;SDS011;4016;50.758;7.150;2023-01-28T01:17:19;3.83;;;3.17;;
7941;SDS011;4016;50.758;7.150;2023-01-28T01:22:20;3.33;;;3.03;;
7941;SDS011;4016;50.758;7.150;2023-01-28T01:27:21;3.27;;;2.97;;
7941;SDS011;4016;50.758;7.150;2023-01-28T01:32:21;4.23;;;3.53;;
7941;SDS011;4016;50.758;7.150;2023-01-28T01:37:21;3.63;;;3.10;;
7941;SDS011;4016;50.758;7.150;2023-01-28T01:42:22;3.40;;;3.10;;
7941;SDS011;4016;50.758;7.150;2023-01-28T01:47:35;3.17;;;2.83;;
7941;SDS011;4016;50.758;7.150;2023-01-28T01:52:46;3.87;;;2.77;;
7941;SDS011;4016;50.758;7.150;2023-01-28T01:57:50;4.37;;;3.63;;
7941;SDS011;4016;50.758;7.150;2023-01-28T02:02:53;3.67;;;2.90;;
7941;SDS011;4016;50.758;7.150;2023-01-28T02:07:56;3.90;;;3.17;;
7941;SDS011;4016;50.758;7.150;2023-01-28T02:13:16;4.03;;;3.47;;
7941;SDS011;4016;50.758;7.150;2023-01-28T02:18:19;4.00;;;3.50;;
7941;SDS011;4016;50.758;7.150;2023-01-28T02:29:02;4.17;;;3.60;;
7941;SDS011;4016;50.758;7.150;2023-01-28T02:39:26;4.33;;;3.23;;
7941;SDS011;4016;50.758;7.150;2023-01-28T02:44:31;3.67;;;3.13;;
7941;SDS011;4016;50.758;7.150;2023-01-28T02:49:37;4.93;;;3.67;;
7941;SDS011;4016;50.758;7.150;2023-01-28T03:00:09;4.23;;;3.47;;
7941;SDS011;4016;50.758;7.150;2023-01-28T03:10:25;5.80;;;3.80;;
7941;SDS011;4016;50.758;7.150;2023-01-28T03:15:37;5.20;;;3.37;;
7941;SDS011;4016;50.758;7.150;2023-01-28T03:21:04;4.27;;;3.77;;
7941;SDS011;4016;50.758;7.150;2023-01-28T03:26:26;3.93;;;3.37;;
7941;SDS011;4016;50.758;7.150;2023-01-28T03:31:49;4.90;;;3.60;;
7941;SDS011;4016;50.758;7.150;2023-01-28T03:37:09;4.57;;;3.77;;
7941;SDS011;4016;50.758;7.150;2023-01-28T03:42:10;4.93;;;3.77;;
7941;SDS011;4016;50.758;7.150;2023-01-28T03:47:13;3.93;;;3.60;;
7941;SDS011;4016;50.758;7.150;2023-01-28T03:52:14;4.80;;;3.70;;
7941;SDS011;4016;50.758;7.150;2023-01-28T03:57:21;6.07;;;4.07;;
7941;SDS011;4016;50.758;7.150;2023-01-28T04:02:25;3.93;;;3.57;;
7941;SDS011;4016;50.758;7.150;2023-01-28T04:07:26;4.60;;;3.77;;
7941;SDS011;4016;50.758;7.150;2023-01-28T04:12:26;7.03;;;4.10;;
7941;SDS011;4016;50.758;7.150;2023-01-28T04:17:26;4.60;;;4.20;;
7941;SDS011;4016;50.758;7.150;2023-01-28T04:22:27;5.30;;;4.30;;
7941;SDS011;4016;50.758;7.150;2023-01-28T04:27:27;5.27;;;4.23;;
7941;SDS011;4016;50.758;7.150;2023-01-28T04:32:28;6.50;;;4.87;;
7941;SDS011;4016;50.758;7.150;2023-01-28T04:37:28;5.97;;;4.97;;
7941;SDS011;4016;50.758;7.150;2023-01-28T04:42:28;6.10;;;4.83;;
7941;SDS011;4016;50.758;7.150;2023-01-28T04:47:29;5.60;;;4.90;;
7941;SDS011;4016;50.758;7.150;2023-01-28T04:52:29;7.17;;;5.57;;
7941;SDS011;4016;50.758;7.150;2023-01-28T04:57:30;7.37;;;4.40;;
7941;SDS011;4016;50.758;7.150;2023-01-28T05:02:30;4.47;;;4.07;;
7941;SDS011;4016;50.758;7.150;2023-01-28T05:07:31;5.77;;;4.87;;
7941;SDS011;4016;50.758;7.150;2023-01-28T05:12:31;4.90;;;4.37;;
7941;SDS011;4016;50.758;7.150;2023-01-28T05:17:33;6.27;;;5.23;;
7941;SDS011;4016;50.758;7.150;2023-01-28T05:22:33;7.00;;;4.90;;
7941;SDS011;4016;50.758;7.150;2023-01-28T05:27:33;6.57;;;4.50;;
7941;SDS011;4016;50.758;7.150;2023-01-28T05:32:34;5.20;;;4.57;;
7941;SDS011;4016;50.758;7.150;2023-01-28T05:37:34;7.03;;;4.80;;
7941;SDS011;4016;50.758;7.150;2023-01-28T05:42:35;7.17;;;5.17;;
7941;SDS011;4016;50.758;7.150;2023-01-28T05:47:35;6.27;;;5.13;;
7941;SDS011;4016;50.758;7.150;2023-01-28T05:52:36;6.73;;;5.47;;
7941;SDS011;4016;50.758;7.150;2023-01-28T05:57:36;6.40;;;5.00;;
7941;SDS011;4016;50.758;7.150;2023-01-28T06:02:36;6.67;;;5.10;;
7941;SDS011;4016;50.758;7.150;2023-01-28T06:07:37;6.53;;;4.47;;
7941;SDS011;4016;50.758;7.150;2023-01-28T06:12:37;6.83;;;5.20;;
7941;SDS011;4016;50.758;7.150;2023-01-28T06:17:37;5.50;;;4.90;;
7941;SDS011;4016;50.758;7.150;2023-01-28T06:22:38;7.80;;;4.27;;
7941;SDS011;4016;50.758;7.150;2023-01-28T06:27:39;6.70;;;5.00;;
7941;SDS011;4016;50.758;7.150;2023-01-28T06:32:39;4.97;;;4.40;;
7941;SDS011;4016;50.758;7.150;2023-01-28T06:37:39;5.37;;;4.47;;
7941;SDS011;4016;50.758;7.150;2023-01-28T06:42:40;6.07;;;5.10;;
7941;SDS011;4016;50.758;7.150;2023-01-28T06:47:41;6.13;;;4.93;;
7941;SDS011;4016;50.758;7.150;2023-01-28T06:52:41;4.77;;;4.33;;
7941;SDS011;4016;50.758;7.150;2023-01-28T06:57:41;5.33;;;4.70;;
7941;SDS011;4016;50.758;7.150;2023-01-28T07:02:44;6.47;;;4.30;;
7941;SDS011;4016;50.758;7.150;2023-01-28T07:07:44;5.90;;;4.17;;
7941;SDS011;4016;50.758;7.150;2023-01-28T07:12:45;6.87;;;4.50;;
7941;SDS011;4016;50.758;7.150;2023-01-28T07:17:45;5.33;;;4.43;;
7941;SDS011;4016;50.758;7.150;2023-01-28T07:22:46;6.33;;;4.87;;
7941;SDS011;4016;50.758;7.150;2023-01-28T07:27:50;5.90;;;4.13;;
7941;SDS011;4016;50.758;7.150;2023-01-28T07:32:55;7.27;;;4.30;;
7941;SDS011;4016;50.758;7.150;2023-01-28T07:37:58;4.87;;;4.27;;
7941;SDS011;4016;50.758;7.150;2023-01-28T07:42:59;6.27;;;4.90;;
7941;SDS011;4016;50.758;7.150;2023-01-28T07:48:00;8.23;;;4.33;;
7941;SDS011;4016;50.758;7.150;2023-01-28T07:53:03;5.23;;;4.40;;
7941;SDS011;4016;50.758;7.150;2023-01-28T07:58:06;4.63;;;3.70;;
7941;SDS011;4016;50.758;7.150;2023-01-28T08:03:13;5.53;;;4.37;;
7941;SDS011;4016;50.758;7.150;2023-01-28T08:08:16;5.40;;;4.33;;
7941;SDS011;4016;50.758;7.150;2023-01-28T08:13:17;5.33;;;4.60;;
7941;SDS011;4016;50.758;7.150;2023-01-28T08:18:18;5.63;;;4.47;;
7941;SDS011;4016;50.758;7.150;2023-01-28T08:23:18;5.27;;;4.57;;
7941;SDS011;4016;50.758;7.150;2023-01-28T08:28:20;4.97;;;4.33;;
7941;SDS011;4016;50.758;7.150;2023-01-28T08:33:21;8.47;;;5.37;;
7941;SDS011;4016;50.758;7.150;2023-01-28T08:38:21;6.17;;;4.97;;
7941;SDS011;4016;50.758;7.150;2023-01-28T08:43:22;7.10;;;5.17;;
7941;SDS011;4016;50.758;7.150;2023-01-28T08:48:22;6.87;;;5.57;;
7941;SDS011;4016;50.758;7.150;2023-01-28T08:53:23;7.60;;;4.70;;
7941;SDS011;4016;50.758;7.150;2023-01-28T08:58:23;5.43;;;4.30;;
7941;SDS011;4016;50.758;7.150;2023-01-28T09:03:24;5.87;;;4.63;;
7941;SDS011;4016;50.758;7.150;2023-01-28T09:08:24;5.77;;;4.77;;
7941;SDS011;4016;50.758;7.150;2023-01-28T09:13:25;5.80;;;4.60;;
7941;SDS011;4016;50.758;7.150;2023-01-28T09:18:26;7.53;;;4.97;;
7941;SDS011;4016;50.758;7.150;2023-01-28T09:23:26;6.87;;;4.90;;
7941;SDS011;4016;50.758;7.150;2023-01-28T09:28:27;8.20;;;4.47;;
7941;SDS011;4016;50.758;7.150;2023-01-28T09:33:29;5.07;;;4.50;;
7941;SDS011;4016;50.758;7.150;2023-01-28T09:38:29;5.83;;;5.07;;
7941;SDS011;4016;50.758;7.150;2023-01-28T09:43:35;5.60;;;4.23;;
7941;SDS011;4016;50.758;7.150;2023-01-28T09:48:53;5.53;;;3.97;;
7941;SDS011;4016;50.758;7.150;2023-01-28T09:53:54;9.63;;;4.10;;
7941;SDS011;4016;50.758;7.150;2023-01-28T09:59:01;4.87;;;4.37;;
7941;SDS011;4016;50.758;7.150;2023-01-28T10:04:19;6.37;;;4.37;;
7941;SDS011;4016;50.758;7.150;2023-01-28T10:25:29;4.67;;;4.27;;
7941;SDS011;4016;50.758;7.150;2023-01-28T10:30:31;5.73;;;3.80;;
7941;SDS011;4016;50.758;7.150;2023-01-28T10:35:38;5.07;;;4.27;;
7941;SDS011;4016;50.758;7.150;2023-01-28T10:40:40;4.53;;;3.60;;
7941;SDS011;4016;50.758;7.150;2023-01-28T10:45:54;7.20;;;4.37;;
7941;SDS011;4016;50.758;7.150;2023-01-28T10:50:56;4.07;;;3.67;;
7941;SDS011;4016;50.758;7.150;2023-01-28T10:56:00;4.23;;;3.83;;
7941;SDS011;4016;50.758;7.150;2023-01-28T11:01:03;6.33;;;4.30;;
7941;SDS011;4016;50.758;7.150;2023-01-28T11:06:05;7.23;;;4.30;;
7941;SDS011;4016;50.758;7.150;2023-01-28T11:11:25;5.93;;;4.70;;
7941;SDS011;4016;50.758;7.150;2023-01-28T11:16:27;5.00;;;4.50;;
7941;SDS011;4016;50.758;7.150;2023-01-28T11:21:28;5.00;;;4.20;;
7941;SDS011;4016;50.758;7.150;2023-01-28T11:26:31;4.53;;;3.83;;
7941;SDS011;4016;50.758;7.150;2023-01-28T11:31:40;4.37;;;3.83;;
7941;SDS011;4016;50.758;7.150;2023-01-28T11:36:49;6.37;;;4.57;;
7941;SDS011;4016;50.758;7.150;2023-01-28T11:42:20;3.87;;;3.43;;
7941;SDS011;4016;50.758;7.150;2023-01-28T11:47:33;5.90;;;4.90;;
7941;SDS011;4016;50.758;7.150;2023-01-28T11:52:54;6.57;;;4.50;;
7941;SDS011;4016;50.758;7.150;2023-01-28T12:14:09;4.40;;;4.00;;
7941;SDS011;4016;50.758;7.150;2023-01-28T12:19:22;4.83;;;4.30;;
7941;SDS011;4016;50.758;7.150;2023-01-28T12:24:42;5.60;;;4.53;;
7941;SDS011;4016;50.758;7.150;2023-01-28T12:35:24;6.27;;;5.07;;
7941;SDS011;4016;50.758;7.150;2023-01-28T12:40:49;4.90;;;4.40;;
7941;SDS011;4016;50.758;7.150;2023-01-28T12:45:57;5.27;;;4.33;;
7941;SDS011;4016;50.758;7.150;2023-01-28T12:56:15;5.27;;;4.00;;
7941;SDS011;4016;50.758;7.150;2023-01-28T13:01:20;5.03;;;3.97;;
7941;SDS011;4016;50.758;7.150;2023-01-28T13:11:40;4.90;;;4.37;;
7941;SDS011;4016;50.758;7.150;2023-01-28T13:16:41;6.40;;;5.03;;
7941;SDS011;4016;50.758;7.150;2023-01-28T13:21:41;5.73;;;4.70;;
7941;SDS011;4016;50.758;7.150;2023-01-28T13:31:51;4.90;;;4.13;;
7941;SDS011;4016;50.758;7.150;2023-01-28T13:36:53;4.87;;;4.13;;
7941;SDS011;4016;50.758;7.150;2023-01-28T13:42:08;4.43;;;3.80;;
7941;SDS011;4016;50.758;7.150;2023-01-28T13:52:29;5.00;;;4.43;;
7941;SDS011;4016;50.758;7.150;2023-01-28T14:18:49;6.57;;;4.20;;
7941;SDS011;4016;50.758;7.150;2023-01-28T14:23:50;4.70;;;4.20;;
7941;SDS011;4016;50.758;7.150;2023-01-28T14:39:27;4.17;;;3.77;;
7941;SDS011;4016;50.758;7.150;2023-01-28T14:44:34;3.90;;;3.50;;
7941;SDS011;4016;50.758;7.150;2023-01-28T14:55:24;4.90;;;4.00;;
7941;SDS011;4016;50.758;7.150;2023-01-28T15:00:31;6.10;;;4.97;;
7941;SDS011;4016;50.758;7.150;2023-01-28T15:05:33;5.63;;;4.23;;
7941;SDS011;4016;50.758;7.150;2023-01-28T15:10:36;5.53;;;5.00;;
7941;SDS011;4016;50.758;7.150;2023-01-28T15:15:38;6.30;;;5.13;;
7941;SDS011;4016;50.758;7.150;2023-01-28T15:20:43;5.27;;;4.60;;
7941;SDS011;4016;50.758;7.150;2023-01-28T15:25:45;5.17;;;4.23;;
7941;SDS011;4016;50.758;7.150;2023-01-28T15:30:45;4.00;;;3.60;;
7941;SDS011;4016;50.758;7.150;2023-01-28T15:35:46;4.47;;;4.03;;
7941;SDS011;4016;50.758;7.150;2023-01-28T15:40:58;4.70;;;4.20;;
7941;SDS011;4016;50.758;7.150;2023-01-28T15:46:01;6.50;;;4.07;;
7941;SDS011;4016;50.758;7.150;2023-01-28T15:51:03;5.00;;;4.20;;
7941;SDS011;4016;50.758;7.150;2023-01-28T15:56:06;5.97;;;4.90;;
7941;SDS011;4016;50.758;7.150;2023-01-28T16:06:10;7.73;;;4.87;;
7941;SDS011;4016;50.758;7.150;2023-01-28T16:11:22;7.07;;;4.73;;
7941;SDS011;4016;50.758;7.150;2023-01-28T16:16:34;5.50;;;4.90;;
7941;SDS011;4016;50.758;7.150;2023-01-28T16:21:37;6.40;;;5.50;;
7941;SDS011;4016;50.758;7.150;2023-01-28T16:26:43;9.30;;;6.43;;
7941;SDS011;4016;50.758;7.150;2023-01-28T16:31:55;10.97;;;7.60;;
7941;SDS011;4016;50.758;7.150;2023-01-28T16:36:58;7.07;;;5.77;;
7941;SDS011;4016;50.758;7.150;2023-01-28T16:41:59;6.70;;;5.47;;
7941;SDS011;4016;50.758;7.150;2023-01-28T16:46:59;6.57;;;5.07;;
7941;SDS011;4016;50.758;7.150;2023-01-28T16:52:00;6.37;;;5.67;;
7941;SDS011;4016;50.758;7.150;2023-01-28T16:57:01;6.33;;;5.60;;
7941;SDS011;4016;50.758;7.150;2023-01-28T17:02:02;7.17;;;5.30;;
7941;SDS011;4016;50.758;7.150;2023-01-28T17:07:02;7.17;;;5.17;;
7941;SDS011;4016;50.758;7.150;2023-01-28T17:12:03;6.27;;;5.30;;
7941;SDS011;4016;50.758;7.150;2023-01-28T17:17:04;9.53;;;5.60;;
7941;SDS011;4016;50.758;7.150;2023-01-28T17:22:04;8.07;;;6.07;;
7941;SDS011;4016;50.758;7.150;2023-01-28T17:27:04;8.47;;;5.37;;
7941;SDS011;4016;50.758;7.150;2023-01-28T17:32:05;8.23;;;6.10;;
7941;SDS011;4016;50.758;7.150;2023-01-28T17:37:05;10.77;;;5.60;;
7941;SDS011;4016;50.758;7.150;2023-01-28T17:42:05;8.03;;;6.13;;
7941;SDS011;4016;50.758;7.150;2023-01-28T17:47:06;10.47;;;5.53;;
7941;SDS011;4016;50.758;7.150;2023-01-28T17:52:06;6.27;;;5.20;;
7941;SDS011;4016;50.758;7.150;2023-01-28T17:57:07;8.40;;;5.97;;
7941;SDS011;4016;50.758;7.150;2023-01-28T18:02:09;11.57;;;7.27;;
7941;SDS011;4016;50.758;7.150;2023-01-28T18:07:10;7.93;;;6.63;;
7941;SDS011;4016;50.758;7.150;2023-01-28T18:12:11;9.73;;;7.23;;
7941;SDS011;4016;50.758;7.150;2023-01-28T18:17:13;9.80;;;7.87;;
7941;SDS011;4016;50.758;7.150;2023-01-28T18:22:14;8.33;;;6.50;;
7941;SDS011;4016;50.758;7.150;2023-01-28T18:27:14;8.40;;;6.30;;
7941;SDS011;4016;50.758;7.150;2023-01-28T18:32:15;10.93;;;6.20;;
7941;SDS011;4016;50.758;7.150;2023-01-28T18:37:15;6.73;;;5.83;;
7941;SDS011;4016;50.758;7.150;2023-01-28T18:42:15;8.20;;;6.53;;
7941;SDS011;4016;50.758;7.150;2023-01-28T18:47:16;8.13;;;6.07;;
7941;SDS011;4016;50.758;7.150;2023-01-28T18:52:16;8.33;;;6.17;;
7941;SDS011;4016;50.758;7.150;2023-01-28T18:57:18;8.20;;;6.70;;
7941;SDS011;4016;50.758;7.150;2023-01-28T19:02:18;15.67;;;8.33;;
7941;SDS011;4016;50.758;7.150;2023-01-28T19:07:19;12.43;;;8.93;;
7941;SDS011;4016;50.758;7.150;2023-01-28T19:12:19;12.90;;;8.57;;
7941;SDS011;4016;50.758;7.150;2023-01-28T19:17:19;9.10;;;6.40;;
7941;SDS011;4016;50.758;7.150;2023-01-28T19:22:20;11.80;;;7.07;;
7941;SDS011;4016;50.758;7.150;2023-01-28T19:27:20;8.43;;;6.93;;
7941;SDS011;4016;50.758;7.150;2023-01-28T19:32:21;6.97;;;5.87;;
7941;SDS011;4016;50.758;7.150;2023-01-28T19:37:21;12.97;;;8.30;;
7941;SDS011;4016;50.758;7.150;2023-01-28T19:42:22;13.40;;;9.43;;
7941;SDS011;4016;50.758;7.150;2023-01-28T19:47:22;12.67;;;8.07;;
7941;SDS011;4016;50.758;7.150;2023-01-28T19:52:23;11.53;;;8.73;;
7941;SDS011;4016;50.758;7.150;2023-01-28T19:57:23;10.63;;;7.77;;
7941;SDS011;4016;50.758;7.150;2023-01-28T20:02:23;12.77;;;9.27;;
7941;SDS011;4016;50.758;7.150;2023-01-28T20:07:24;19.87;;;8.63;;
7941;SDS011;4016;50.758;7.150;2023-01-28T20:12:24;13.93;;;8.13;;
7941;SDS011;4016;50.758;7.150;2023-01-28T20:17:25;8.70;;;7.60;;
7941;SDS011;4016;50.758;7.150;2023-01-28T20:22:27;13.07;;;8.97;;
7941;SDS011;4016;50.758;7.150;2023-01-28T20:27:27;8.57;;;7.10;;
7941;SDS011;4016;50.758;7.150;2023-01-28T20:32:28;9.97;;;8.10;;
7941;SDS011;4016;50.758;7.150;2023-01-28T20:37:28;7.97;;;6.70;;
7941;SDS011;4016;50.758;7.150;2023-01-28T20:42:29;10.17;;;7.63;;
7941;SDS011;4016;50.758;7.150;2023-01-28T20:47:30;10.13;;;7.73;;
7941;SDS011;4016;50.758;7.150;2023-01-28T20:52:30;12.93;;;9.27;;
7941;SDS011;4016;50.758;7.150;2023-01-28T20:57:31;11.07;;;7.70;;
7941;SDS011;4016;50.758;7.150;2023-01-28T21:02:31;8.27;;;6.20;;
7941;SDS011;4016;50.758;7.150;2023-01-28T21:07:34;8.63;;;6.70;;
7941;SDS011;4016;50.758;7.150;2023-01-28T21:12:34;10.70;;;8.43;;
7941;SDS011;4016;50.758;7.150;2023-01-28T21:17:35;9.37;;;8.37;;
7941;SDS011;4016;50.758;7.150;2023-01-28T21:22:35;13.83;;;8.37;;
7941;SDS011;4016;50.758;7.150;2023-01-28T21:27:37;11.23;;;8.17;;
7941;SDS011;4016;50.758;7.150;2023-01-28T21:32:37;8.63;;;7.33;;
7941;SDS011;4016;50.758;7.150;2023-01-28T21:37:38;14.27;;;7.50;;
7941;SDS011;4016;50.758;7.150;2023-01-28T21:42:38;13.67;;;8.93;;
7941;SDS011;4016;50.758;7.150;2023-01-28T21:47:39;9.63;;;7.10;;
7941;SDS011;4016;50.758;7.150;2023-01-28T21:52:39;15.60;;;10.00;;
7941;SDS011;4016;50.758;7.150;2023-01-28T21:57:39;12.37;;;9.47;;
7941;SDS011;4016;50.758;7.150;2023-01-28T22:02:40;14.47;;;11.70;;
7941;SDS011;4016;50.758;7.150;2023-01-28T22:07:40;17.63;;;11.40;;
7941;SDS011;4016;50.758;7.150;2023-01-28T22:12:41;18.93;;;11.60;;
7941;SDS011;4016;50.758;7.150;2023-01-28T22:17:41;17.37;;;11.27;;
7941;SDS011;4016;50.758;7.150;2023-01-28T22:22:41;14.00;;;9.83;;
7941;SDS011;4016;50.758;7.150;2023-01-28T22:27:42;13.00;;;10.10;;
7941;SDS011;4016;50.758;7.150;2023-01-28T22:32:42;16.90;;;12.07;;
7941;SDS011;4016;50.758;7.150;2023-01-28T22:37:43;15.73;;;9.63;;
7941;SDS011;4016;50.758;7.150;2023-01-28T22:42:43;16.77;;;10.47;;
7941;SDS011;4016;50.758;7.150;2023-01-28T22:47:43;16.73;;;10.67;;
7941;SDS011;4016;50.758;7.150;2023-01-28T22:52:45;15.37;;;10.40;;
7941;SDS011;4016;50.758;7.150;2023-01-28T22:57:46;12.67;;;9.47;;
7941;SDS011;4016;50.758;7.150;2023-01-28T23:02:46;15.63;;;11.07;;
7941;SDS011;4016;50.758;7.150;2023-01-28T23:07:47;14.80;;;11.23;;
7941;SDS011;4016;50.758;7.150;2023-01-28T23:12:47;14.70;;;10.13;;
7941;SDS011;4016;50.758;7.150;2023-01-28T23:17:52;19.57;;;9.77;;
7941;SDS011;4016;50.758;7.150;2023-01-28T23:23:13;15.47;;;10.07;;
7941;SDS011;4016;50.758;7.150;2023-01-28T23:28:34;14.43;;;9.13;;
7941;SDS011;4016;50.758;7.150;2023-01-28T23:33:34;13.60;;;9.93;;
7941;SDS011;4016;50.758;7.150;2023-01-28T23:38:35;13.90;;;10.63;;
7941;SDS011;4016;50.758;7.150;2023-01-28T23:43:37;15.97;;;11.23;;
7941;SDS011;4016;50.758;7.150;2023-01-28T23:48:37;16.77;;;11.37;;
7941;SDS011;4016;50.758;7.150;2023-01-28T23:53:37;15.97;;;10.03;;
7941;SDS011;4016;50.758;7.150;2023-01-28T23:58:38;17.33;;;10.80;;
